Marche Airport

LIPY · 马尔凯, 意大利

罗盘
风向 的 风向 160° Ancona Falconara Airport 1/19
风: 2 kt, 1 beaufort

2 kt

1 kt
改变
0 1.000 2.000 3.000 4.000 5.000
垂直能见度
METAR LIVF 080555Z 16002KT 0200 FG VV/// 05/04 Q1009 RMK MON INVIS VAL INVIS VIS MIN 0200

METAR Ancona Falconara Airport - LIPY/AOI

Ancona Falconara Airport是,意大利中的中型机场。 该机场有3条跑道: 1/19, 4/22 和 8/26. 该领域的国际民航组织标志是LIPY 它的国际航空运输协会代码是AOI.

这份报告是针对2022年12月8日 06:55, 当地时间在弗龙托内进行的。

机场观察

风向为160°,速度为2 kt。

可见度为200 m。

垂直能见度为0 ft 没有观察到天花板。

当前天气为多雾路段。 温度为5 °C,阵风为3 °C。 露点为4 °C,相对湿度为93%。 海平面上的气压为1009 hPa (QNH)。

白天

今天,太阳从07:27升起,在16:29降落。 这适用于Ancona Falconara Airport,世界夏令时可能有所不同。 当地时间与世界标准时间之间的时差为+1 小时。 当前,没有夏令时有效。

公司介绍

我们没有关于这个机场的公司信息。

体会

到Vliegles.nl去找飞行课程,跳伞和其他飞行体验。 浏览页面,了解Ancona Falconara Airport附近所有可用的活动。 你也可以使用搜索功能来寻找你所在地附近的特定飞行课程、跳伞或其他飞行体验。

警示语

垂直能见度为0 ft。

跑道

Id 标题 侧风 逆风 侧风 %
1/19 010°-190° 2 kt 50 %
4/22 045°-225° 2 kt 91 %
8/26 080°-260° 2 kt 98 %

逆风成分最大的方向会被突出显示,并用于横风计算。 这并不一定意味着这个方向在使用。

乌云

0 ft VV 垂直能见度

温度 & 天气

天气 多雾路段
温度 5 °C
露点 4 °C
相对湿度 93%
风寒 3 °C
Kp-index 1 (0-9)

评论

MON INVIS VAL INVIS VIS MIN 0200

白天

日出
07:29 (2m)
中午
12:00
日落
16:32

小工具

你想在你的网站上有一个关于Ancona Falconara Airport的当前航空天气(METAR)的小部件吗?

显示HTML代码

我们和第三方通过cookies跟踪您在我们网站上的互联网行为。如果你继续,我们认为你同意我们的饼干政策